Bear Creek, Wisconsin
Current Conditions -  °F | °C
As of 5:55 PM on Monday 22 Dec 2014 (Local Time) from KCLI Reporting Station
Light Snow Light Snow  
Wind Chill: 26°   Ceiling: 800
Heat Index: 32°   Visibility: 2.5mi
Dew Point: 32°   Wind: 7mph
Humidity: 100%   Direction: 70°ENE
Pressure: 29.76"   Gusts: NA
Location:  44.53°N, 88.73°W
Report Text: KCLI 222355Z AUTO 07006KT 2 1/2SM -SN OVC008 00/00 A2976 RMK AO2
Loading
Personal Weather Stations






























Interactive Weather Map New forecast layout! Learn more

10-Day Weather Forecast

Advertisements
Track Severe Weather on mobile